📊 Raw Sensor Data

Showing records 43951 to 43975 of 85,027 total

ID Distance (ft) Battery V Battery A Int Temp (°F) Int Humid (%) Ext Temp (°F) Solar V RSSI SNR Time Stamp
41089 15.7 3.92 -5 65 46 66 0.00 -68 7 05/19/2025 10:00 PM
41088 15.7 3.92 -5 65 47 66 0.10 -68 8 05/19/2025 09:45 PM
41087 15.7 3.92 -5 66 47 66 0.00 -69 8 05/19/2025 09:30 PM
41086 15.7 3.98 -5 67 48 67 0.00 -68 8 05/19/2025 09:15 PM
41085 15.7 3.98 -5 67 49 68 0.00 -68 8 05/19/2025 09:00 PM
41084 15.7 3.92 -5 69 51 68 0.00 -67 8 05/19/2025 08:45 PM
41083 15.7 3.92 -5 70 52 69 0.70 -67 8 05/19/2025 08:30 PM
41082 15.7 3.91 -10 73 53 70 1.90 -70 8 05/19/2025 08:15 PM
41081 15.8 4.00 0 80 52 76 4.50 -69 8 05/19/2025 07:45 PM
41080 15.8 4.01 7 84 51 78 4.50 -69 8 05/19/2025 07:30 PM
41079 15.8 4.01 10 86 50 80 4.60 -69 8 05/19/2025 07:15 PM
41078 15.8 3.96 -10 88 50 81 4.50 -69 8 05/19/2025 07:00 PM
41077 15.8 4.01 31 89 50 81 4.50 -68 7 05/19/2025 06:45 PM
41076 15.8 4.06 43 90 50 82 4.50 -70 7 05/19/2025 06:30 PM
41075 15.8 3.96 0 92 49 85 5.10 -69 8 05/19/2025 06:15 PM
41074 15.8 3.96 5 94 49 85 5.10 -68 7 05/19/2025 06:00 PM
41073 15.9 4.01 0 94 48 85 5.10 -68 8 05/19/2025 05:45 PM
41072 15.9 3.96 5 95 48 86 5.10 -69 9 05/19/2025 05:30 PM
41071 15.9 3.96 0 96 47 88 5.10 -68 8 05/19/2025 05:15 PM
41070 15.9 3.97 0 97 47 87 5.10 -69 8 05/19/2025 05:00 PM
41069 15.9 3.96 0 99 45 87 5.10 -68 8 05/19/2025 04:45 PM
41068 15.9 3.96 5 98 45 89 5.10 -69 7 05/19/2025 04:30 PM
41067 15.9 3.96 5 100 44 93 5.10 -67 8 05/19/2025 04:15 PM
41066 15.9 3.96 0 99 43 89 5.10 -69 8 05/19/2025 04:00 PM
41065 15.9 4.03 0 98 43 92 5.10 -67 8 05/19/2025 03:45 PM